sensor_id;sensor_type;location;lat;lon;timestamp;P1;durP1;ratioP1;P2;durP2;ratioP2
68475;SDS011;55464;48.266;14.188;2024-03-17T00:01:15;2.45;;;1.70;;
68475;SDS011;55464;48.266;14.188;2024-03-17T00:03:41;3.20;;;1.60;;
68475;SDS011;55464;48.266;14.188;2024-03-17T00:06:07;1.80;;;1.33;;
68475;SDS011;55464;48.266;14.188;2024-03-17T00:08:34;1.75;;;1.65;;
68475;SDS011;55464;48.266;14.188;2024-03-17T00:10:59;5.47;;;2.05;;
68475;SDS011;55464;48.266;14.188;2024-03-17T00:13:25;2.20;;;2.00;;
68475;SDS011;55464;48.266;14.188;2024-03-17T00:15:51;1.98;;;1.80;;
68475;SDS011;55464;48.266;14.188;2024-03-17T00:18:17;2.67;;;1.98;;
68475;SDS011;55464;48.266;14.188;2024-03-17T00:20:43;1.90;;;1.73;;
68475;SDS011;55464;48.266;14.188;2024-03-17T00:23:08;2.35;;;1.58;;
68475;SDS011;55464;48.266;14.188;2024-03-17T00:25:36;3.00;;;1.90;;
68475;SDS011;55464;48.266;14.188;2024-03-17T00:28:02;2.40;;;2.10;;
68475;SDS011;55464;48.266;14.188;2024-03-17T00:30:28;2.13;;;1.48;;
68475;SDS011;55464;48.266;14.188;2024-03-17T00:32:54;2.05;;;1.75;;
68475;SDS011;55464;48.266;14.188;2024-03-17T00:35:20;2.20;;;2.00;;
68475;SDS011;55464;48.266;14.188;2024-03-17T00:37:49;2.40;;;2.20;;
68475;SDS011;55464;48.266;14.188;2024-03-17T00:40:15;2.42;;;2.00;;
68475;SDS011;55464;48.266;14.188;2024-03-17T00:42:42;2.58;;;2.22;;
68475;SDS011;55464;48.266;14.188;2024-03-17T00:45:11;3.20;;;2.40;;
68475;SDS011;55464;48.266;14.188;2024-03-17T00:47:37;5.80;;;2.10;;
68475;SDS011;55464;48.266;14.188;2024-03-17T00:50:04;2.70;;;2.22;;
68475;SDS011;55464;48.266;14.188;2024-03-17T00:52:31;2.33;;;1.77;;
68475;SDS011;55464;48.266;14.188;2024-03-17T00:54:57;3.70;;;2.08;;
68475;SDS011;55464;48.266;14.188;2024-03-17T00:57:22;2.25;;;2.05;;
68475;SDS011;55464;48.266;14.188;2024-03-17T00:59:49;2.53;;;2.20;;
68475;SDS011;55464;48.266;14.188;2024-03-17T01:02:15;4.00;;;2.72;;
68475;SDS011;55464;48.266;14.188;2024-03-17T01:04:42;2.08;;;1.90;;
68475;SDS011;55464;48.266;14.188;2024-03-17T01:07:08;4.65;;;2.40;;
68475;SDS011;55464;48.266;14.188;2024-03-17T01:09:34;2.15;;;2.00;;
68475;SDS011;55464;48.266;14.188;2024-03-17T01:12:00;3.85;;;2.30;;
68475;SDS011;55464;48.266;14.188;2024-03-17T01:14:26;3.65;;;2.55;;
68475;SDS011;55464;48.266;14.188;2024-03-17T01:16:53;2.53;;;2.30;;
68475;SDS011;55464;48.266;14.188;2024-03-17T01:19:18;2.40;;;2.20;;
68475;SDS011;55464;48.266;14.188;2024-03-17T01:21:44;5.90;;;2.50;;
68475;SDS011;55464;48.266;14.188;2024-03-17T01:24:09;4.78;;;2.75;;
68475;SDS011;55464;48.266;14.188;2024-03-17T01:26:35;2.67;;;2.33;;
68475;SDS011;55464;48.266;14.188;2024-03-17T01:29:00;2.55;;;2.35;;
68475;SDS011;55464;48.266;14.188;2024-03-17T01:31:26;3.33;;;2.83;;
68475;SDS011;55464;48.266;14.188;2024-03-17T01:33:52;5.00;;;3.10;;
68475;SDS011;55464;48.266;14.188;2024-03-17T01:36:18;3.38;;;2.80;;
68475;SDS011;55464;48.266;14.188;2024-03-17T01:38:43;3.80;;;2.83;;
68475;SDS011;55464;48.266;14.188;2024-03-17T01:41:09;6.30;;;3.38;;
68475;SDS011;55464;48.266;14.188;2024-03-17T01:43:35;3.85;;;3.08;;
68475;SDS011;55464;48.266;14.188;2024-03-17T01:46:00;4.47;;;3.17;;
68475;SDS011;55464;48.266;14.188;2024-03-17T01:48:27;6.72;;;3.65;;
68475;SDS011;55464;48.266;14.188;2024-03-17T01:50:53;4.13;;;3.13;;
68475;SDS011;55464;48.266;14.188;2024-03-17T01:53:21;4.18;;;2.75;;
68475;SDS011;55464;48.266;14.188;2024-03-17T01:55:52;6.43;;;3.28;;
68475;SDS011;55464;48.266;14.188;2024-03-17T01:58:21;4.05;;;2.85;;
68475;SDS011;55464;48.266;14.188;2024-03-17T02:00:55;6.35;;;2.80;;
68475;SDS011;55464;48.266;14.188;2024-03-17T02:03:21;3.95;;;3.22;;
68475;SDS011;55464;48.266;14.188;2024-03-17T02:05:46;4.90;;;3.47;;
68475;SDS011;55464;48.266;14.188;2024-03-17T02:08:13;3.88;;;3.05;;
68475;SDS011;55464;48.266;14.188;2024-03-17T02:10:38;4.78;;;3.08;;
68475;SDS011;55464;48.266;14.188;2024-03-17T02:13:04;5.43;;;3.42;;
68475;SDS011;55464;48.266;14.188;2024-03-17T02:15:30;5.70;;;3.65;;
68475;SDS011;55464;48.266;14.188;2024-03-17T02:17:57;5.15;;;3.25;;
68475;SDS011;55464;48.266;14.188;2024-03-17T02:20:22;6.38;;;3.72;;
68475;SDS011;55464;48.266;14.188;2024-03-17T02:23:06;5.43;;;3.33;;
68475;SDS011;55464;48.266;14.188;2024-03-17T02:25:32;5.90;;;3.45;;
68475;SDS011;55464;48.266;14.188;2024-03-17T02:27:57;4.78;;;3.35;;
68475;SDS011;55464;48.266;14.188;2024-03-17T02:30:23;6.63;;;3.45;;
68475;SDS011;55464;48.266;14.188;2024-03-17T02:32:52;5.32;;;3.47;;
68475;SDS011;55464;48.266;14.188;2024-03-17T02:35:17;5.53;;;3.80;;
68475;SDS011;55464;48.266;14.188;2024-03-17T02:37:43;4.70;;;3.10;;
68475;SDS011;55464;48.266;14.188;2024-03-17T02:40:09;10.48;;;4.10;;
68475;SDS011;55464;48.266;14.188;2024-03-17T02:42:35;6.28;;;3.85;;
68475;SDS011;55464;48.266;14.188;2024-03-17T02:45:03;5.82;;;3.80;;
68475;SDS011;55464;48.266;14.188;2024-03-17T02:47:29;6.82;;;4.32;;
68475;SDS011;55464;48.266;14.188;2024-03-17T02:49:55;5.35;;;4.00;;
68475;SDS011;55464;48.266;14.188;2024-03-17T02:52:20;5.00;;;3.60;;
68475;SDS011;55464;48.266;14.188;2024-03-17T02:54:46;7.53;;;5.03;;
68475;SDS011;55464;48.266;14.188;2024-03-17T02:57:11;7.55;;;4.10;;
68475;SDS011;55464;48.266;14.188;2024-03-17T02:59:37;6.43;;;3.78;;
68475;SDS011;55464;48.266;14.188;2024-03-17T03:02:03;5.60;;;4.05;;
68475;SDS011;55464;48.266;14.188;2024-03-17T03:04:29;6.95;;;3.92;;
68475;SDS011;55464;48.266;14.188;2024-03-17T03:06:55;6.18;;;4.45;;
68475;SDS011;55464;48.266;14.188;2024-03-17T03:09:21;11.18;;;4.13;;
68475;SDS011;55464;48.266;14.188;2024-03-17T03:11:57;7.38;;;4.35;;
68475;SDS011;55464;48.266;14.188;2024-03-17T03:14:28;6.65;;;3.97;;
68475;SDS011;55464;48.266;14.188;2024-03-17T03:16:53;6.20;;;3.97;;
68475;SDS011;55464;48.266;14.188;2024-03-17T03:19:19;7.50;;;4.38;;
68475;SDS011;55464;48.266;14.188;2024-03-17T03:21:45;6.13;;;4.80;;
68475;SDS011;55464;48.266;14.188;2024-03-17T03:24:11;6.93;;;3.75;;
68475;SDS011;55464;48.266;14.188;2024-03-17T03:26:37;7.22;;;4.70;;
68475;SDS011;55464;48.266;14.188;2024-03-17T03:29:03;6.18;;;4.15;;
68475;SDS011;55464;48.266;14.188;2024-03-17T03:31:30;6.45;;;4.22;;
68475;SDS011;55464;48.266;14.188;2024-03-17T03:33:56;6.40;;;4.43;;
68475;SDS011;55464;48.266;14.188;2024-03-17T03:36:22;5.55;;;4.13;;
68475;SDS011;55464;48.266;14.188;2024-03-17T03:38:47;6.82;;;4.65;;
68475;SDS011;55464;48.266;14.188;2024-03-17T03:41:15;6.35;;;4.32;;
68475;SDS011;55464;48.266;14.188;2024-03-17T03:43:41;7.00;;;4.05;;
68475;SDS011;55464;48.266;14.188;2024-03-17T03:46:08;8.15;;;4.30;;
68475;SDS011;55464;48.266;14.188;2024-03-17T03:48:33;7.47;;;4.53;;
68475;SDS011;55464;48.266;14.188;2024-03-17T03:51:02;7.38;;;4.53;;
68475;SDS011;55464;48.266;14.188;2024-03-17T03:55:55;8.25;;;4.07;;
68475;SDS011;55464;48.266;14.188;2024-03-17T03:58:20;8.70;;;4.80;;
68475;SDS011;55464;48.266;14.188;2024-03-17T04:00:46;5.82;;;4.40;;
68475;SDS011;55464;48.266;14.188;2024-03-17T04:03:11;6.35;;;4.43;;
68475;SDS011;55464;48.266;14.188;2024-03-17T04:05:37;8.68;;;5.03;;
68475;SDS011;55464;48.266;14.188;2024-03-17T04:08:03;8.95;;;4.90;;
68475;SDS011;55464;48.266;14.188;2024-03-17T04:10:29;6.28;;;4.63;;
68475;SDS011;55464;48.266;14.188;2024-03-17T04:12:55;6.80;;;4.93;;
68475;SDS011;55464;48.266;14.188;2024-03-17T04:15:22;7.65;;;5.45;;
68475;SDS011;55464;48.266;14.188;2024-03-17T04:17:48;8.35;;;4.35;;
68475;SDS011;55464;48.266;14.188;2024-03-17T04:20:14;6.88;;;5.20;;
68475;SDS011;55464;48.266;14.188;2024-03-17T04:22:43;7.18;;;4.45;;
68475;SDS011;55464;48.266;14.188;2024-03-17T04:25:08;8.05;;;5.15;;
68475;SDS011;55464;48.266;14.188;2024-03-17T04:27:34;6.03;;;4.53;;
68475;SDS011;55464;48.266;14.188;2024-03-17T04:30:00;6.78;;;4.80;;
68475;SDS011;55464;48.266;14.188;2024-03-17T04:32:26;8.38;;;5.43;;
68475;SDS011;55464;48.266;14.188;2024-03-17T04:34:56;7.85;;;5.10;;
68475;SDS011;55464;48.266;14.188;2024-03-17T04:37:21;7.75;;;5.05;;
68475;SDS011;55464;48.266;14.188;2024-03-17T04:39:47;6.22;;;4.65;;
68475;SDS011;55464;48.266;14.188;2024-03-17T04:42:13;8.18;;;5.70;;
68475;SDS011;55464;48.266;14.188;2024-03-17T04:44:44;7.57;;;5.50;;
68475;SDS011;55464;48.266;14.188;2024-03-17T04:47:10;7.00;;;5.30;;
68475;SDS011;55464;48.266;14.188;2024-03-17T04:49:36;7.82;;;5.82;;
68475;SDS011;55464;48.266;14.188;2024-03-17T04:52:03;7.88;;;4.78;;
68475;SDS011;55464;48.266;14.188;2024-03-17T04:54:30;9.18;;;5.70;;
68475;SDS011;55464;48.266;14.188;2024-03-17T04:56:56;10.88;;;5.55;;
68475;SDS011;55464;48.266;14.188;2024-03-17T04:59:22;8.95;;;5.55;;
68475;SDS011;55464;48.266;14.188;2024-03-17T05:01:47;9.40;;;5.13;;
68475;SDS011;55464;48.266;14.188;2024-03-17T05:04:13;9.43;;;5.10;;
68475;SDS011;55464;48.266;14.188;2024-03-17T05:06:40;10.65;;;4.80;;
68475;SDS011;55464;48.266;14.188;2024-03-17T05:09:07;8.68;;;5.40;;
68475;SDS011;55464;48.266;14.188;2024-03-17T05:11:33;7.95;;;5.53;;
68475;SDS011;55464;48.266;14.188;2024-03-17T05:14:00;6.72;;;5.30;;
68475;SDS011;55464;48.266;14.188;2024-03-17T05:16:26;12.68;;;6.55;;
68475;SDS011;55464;48.266;14.188;2024-03-17T05:18:54;10.32;;;6.20;;
68475;SDS011;55464;48.266;14.188;2024-03-17T05:21:20;12.35;;;8.05;;
68475;SDS011;55464;48.266;14.188;2024-03-17T05:23:47;9.32;;;6.03;;
68475;SDS011;55464;48.266;14.188;2024-03-17T05:26:13;8.68;;;4.90;;
68475;SDS011;55464;48.266;14.188;2024-03-17T05:28:39;10.07;;;6.30;;
68475;SDS011;55464;48.266;14.188;2024-03-17T05:31:05;10.48;;;5.80;;
68475;SDS011;55464;48.266;14.188;2024-03-17T05:33:30;6.97;;;5.50;;
68475;SDS011;55464;48.266;14.188;2024-03-17T05:35:57;11.13;;;6.00;;
68475;SDS011;55464;48.266;14.188;2024-03-17T05:38:24;11.18;;;5.85;;
68475;SDS011;55464;48.266;14.188;2024-03-17T05:40:58;7.55;;;4.95;;
68475;SDS011;55464;48.266;14.188;2024-03-17T05:43:28;8.52;;;5.22;;
68475;SDS011;55464;48.266;14.188;2024-03-17T05:45:58;10.38;;;6.22;;
68475;SDS011;55464;48.266;14.188;2024-03-17T05:48:24;9.05;;;5.90;;
68475;SDS011;55464;48.266;14.188;2024-03-17T05:50:50;9.10;;;4.93;;
68475;SDS011;55464;48.266;14.188;2024-03-17T05:53:22;8.55;;;5.10;;
68475;SDS011;55464;48.266;14.188;2024-03-17T05:55:50;8.25;;;5.50;;
68475;SDS011;55464;48.266;14.188;2024-03-17T05:58:16;10.32;;;7.05;;
68475;SDS011;55464;48.266;14.188;2024-03-17T06:00:42;8.07;;;6.00;;
68475;SDS011;55464;48.266;14.188;2024-03-17T06:03:08;8.15;;;5.15;;
68475;SDS011;55464;48.266;14.188;2024-03-17T06:05:38;7.30;;;5.43;;
68475;SDS011;55464;48.266;14.188;2024-03-17T06:08:08;9.60;;;6.03;;
68475;SDS011;55464;48.266;14.188;2024-03-17T06:10:35;9.85;;;5.47;;
68475;SDS011;55464;48.266;14.188;2024-03-17T06:13:01;10.07;;;5.75;;
68475;SDS011;55464;48.266;14.188;2024-03-17T06:15:27;9.77;;;5.60;;
68475;SDS011;55464;48.266;14.188;2024-03-17T06:17:53;8.10;;;5.43;;
68475;SDS011;55464;48.266;14.188;2024-03-17T06:20:23;6.53;;;4.93;;
68475;SDS011;55464;48.266;14.188;2024-03-17T06:22:52;9.77;;;5.65;;
68475;SDS011;55464;48.266;14.188;2024-03-17T06:25:18;7.90;;;5.60;;
68475;SDS011;55464;48.266;14.188;2024-03-17T06:27:43;10.02;;;6.43;;
68475;SDS011;55464;48.266;14.188;2024-03-17T06:30:12;7.28;;;5.22;;
68475;SDS011;55464;48.266;14.188;2024-03-17T06:32:41;8.00;;;5.15;;
68475;SDS011;55464;48.266;14.188;2024-03-17T06:35:10;7.63;;;4.53;;
68475;SDS011;55464;48.266;14.188;2024-03-17T06:37:36;7.68;;;5.40;;
68475;SDS011;55464;48.266;14.188;2024-03-17T06:40:02;7.97;;;5.28;;
68475;SDS011;55464;48.266;14.188;2024-03-17T06:42:28;11.18;;;4.65;;
68475;SDS011;55464;48.266;14.188;2024-03-17T06:44:57;6.55;;;4.78;;
68475;SDS011;55464;48.266;14.188;2024-03-17T06:47:23;7.75;;;4.80;;
68475;SDS011;55464;48.266;14.188;2024-03-17T06:49:48;9.13;;;4.95;;
68475;SDS011;55464;48.266;14.188;2024-03-17T06:52:14;5.72;;;4.50;;
68475;SDS011;55464;48.266;14.188;2024-03-17T06:54:39;6.15;;;4.65;;
68475;SDS011;55464;48.266;14.188;2024-03-17T06:57:05;7.53;;;4.82;;
68475;SDS011;55464;48.266;14.188;2024-03-17T06:59:33;8.80;;;4.70;;
68475;SDS011;55464;48.266;14.188;2024-03-17T07:01:59;7.82;;;4.57;;
68475;SDS011;55464;48.266;14.188;2024-03-17T07:04:24;7.10;;;4.75;;
68475;SDS011;55464;48.266;14.188;2024-03-17T07:06:50;8.18;;;4.63;;
68475;SDS011;55464;48.266;14.188;2024-03-17T07:09:15;6.28;;;4.55;;
68475;SDS011;55464;48.266;14.188;2024-03-17T07:11:42;8.40;;;4.63;;
68475;SDS011;55464;48.266;14.188;2024-03-17T07:14:09;9.13;;;5.15;;
68475;SDS011;55464;48.266;14.188;2024-03-17T07:16:34;6.72;;;5.32;;
68475;SDS011;55464;48.266;14.188;2024-03-17T07:19:01;8.50;;;4.80;;
68475;SDS011;55464;48.266;14.188;2024-03-17T07:21:27;7.18;;;4.90;;
68475;SDS011;55464;48.266;14.188;2024-03-17T07:23:52;6.13;;;4.70;;
68475;SDS011;55464;48.266;14.188;2024-03-17T07:26:18;7.07;;;4.75;;
68475;SDS011;55464;48.266;14.188;2024-03-17T07:28:43;6.47;;;4.55;;
68475;SDS011;55464;48.266;14.188;2024-03-17T07:31:09;6.47;;;5.20;;
68475;SDS011;55464;48.266;14.188;2024-03-17T07:33:35;6.32;;;4.57;;
68475;SDS011;55464;48.266;14.188;2024-03-17T07:36:00;7.93;;;4.93;;
68475;SDS011;55464;48.266;14.188;2024-03-17T07:38:27;6.80;;;4.65;;
68475;SDS011;55464;48.266;14.188;2024-03-17T07:41:01;6.32;;;4.80;;
68475;SDS011;55464;48.266;14.188;2024-03-17T07:43:29;8.13;;;4.90;;
68475;SDS011;55464;48.266;14.188;2024-03-17T07:46:00;7.07;;;4.57;;
68475;SDS011;55464;48.266;14.188;2024-03-17T07:48:28;6.57;;;4.45;;
68475;SDS011;55464;48.266;14.188;2024-03-17T07:50:58;5.40;;;4.07;;
68475;SDS011;55464;48.266;14.188;2024-03-17T07:53:37;6.03;;;4.57;;
68475;SDS011;55464;48.266;14.188;2024-03-17T07:56:04;6.88;;;4.70;;
68475;SDS011;55464;48.266;14.188;2024-03-17T07:58:33;6.50;;;4.65;;
68475;SDS011;55464;48.266;14.188;2024-03-17T08:01:11;9.20;;;5.03;;
68475;SDS011;55464;48.266;14.188;2024-03-17T08:03:39;6.53;;;4.83;;
68475;SDS011;55464;48.266;14.188;2024-03-17T08:06:06;6.97;;;4.78;;
68475;SDS011;55464;48.266;14.188;2024-03-17T08:08:33;8.15;;;4.75;;
68475;SDS011;55464;48.266;14.188;2024-03-17T08:10:59;8.82;;;5.07;;
68475;SDS011;55464;48.266;14.188;2024-03-17T08:13:28;7.53;;;4.82;;
68475;SDS011;55464;48.266;14.188;2024-03-17T08:15:59;6.97;;;4.65;;
68475;SDS011;55464;48.266;14.188;2024-03-17T08:18:26;8.07;;;4.63;;
68475;SDS011;55464;48.266;14.188;2024-03-17T08:20:55;6.17;;;4.30;;
68475;SDS011;55464;48.266;14.188;2024-03-17T08:23:21;5.78;;;4.25;;
68475;SDS011;55464;48.266;14.188;2024-03-17T08:25:56;4.70;;;3.78;;
68475;SDS011;55464;48.266;14.188;2024-03-17T08:28:23;4.78;;;3.78;;
68475;SDS011;55464;48.266;14.188;2024-03-17T08:33:19;7.60;;;4.25;;
68475;SDS011;55464;48.266;14.188;2024-03-17T08:38:30;6.15;;;3.90;;
68475;SDS011;55464;48.266;14.188;2024-03-17T08:40:57;5.60;;;3.80;;
68475;SDS011;55464;48.266;14.188;2024-03-17T08:43:27;10.43;;;3.63;;
68475;SDS011;55464;48.266;14.188;2024-03-17T08:45:59;5.43;;;3.50;;
68475;SDS011;55464;48.266;14.188;2024-03-17T08:48:33;4.30;;;3.70;;
68475;SDS011;55464;48.266;14.188;2024-03-17T08:51:01;6.60;;;3.60;;
68475;SDS011;55464;48.266;14.188;2024-03-17T08:53:28;5.72;;;3.00;;
68475;SDS011;55464;48.266;14.188;2024-03-17T08:55:54;5.45;;;4.18;;
68475;SDS011;55464;48.266;14.188;2024-03-17T08:58:21;5.20;;;3.67;;
68475;SDS011;55464;48.266;14.188;2024-03-17T09:00:47;4.10;;;3.15;;
68475;SDS011;55464;48.266;14.188;2024-03-17T09:03:12;4.65;;;3.53;;
68475;SDS011;55464;48.266;14.188;2024-03-17T09:05:38;4.68;;;3.60;;
68475;SDS011;55464;48.266;14.188;2024-03-17T09:08:05;5.32;;;3.30;;
68475;SDS011;55464;48.266;14.188;2024-03-17T09:10:38;4.35;;;3.50;;
68475;SDS011;55464;48.266;14.188;2024-03-17T09:13:06;6.43;;;3.83;;
68475;SDS011;55464;48.266;14.188;2024-03-17T09:15:35;4.25;;;3.30;;
68475;SDS011;55464;48.266;14.188;2024-03-17T09:18:00;7.07;;;4.13;;
68475;SDS011;55464;48.266;14.188;2024-03-17T09:20:28;8.75;;;4.20;;
68475;SDS011;55464;48.266;14.188;2024-03-17T09:22:54;5.68;;;4.20;;
68475;SDS011;55464;48.266;14.188;2024-03-17T09:25:19;4.55;;;3.50;;
68475;SDS011;55464;48.266;14.188;2024-03-17T09:27:45;5.45;;;3.88;;
68475;SDS011;55464;48.266;14.188;2024-03-17T09:30:11;4.28;;;3.08;;
68475;SDS011;55464;48.266;14.188;2024-03-17T09:32:36;3.83;;;3.00;;
68475;SDS011;55464;48.266;14.188;2024-03-17T09:35:02;4.95;;;3.70;;
68475;SDS011;55464;48.266;14.188;2024-03-17T09:37:28;4.55;;;2.95;;
68475;SDS011;55464;48.266;14.188;2024-03-17T09:39:56;3.80;;;2.72;;
68475;SDS011;55464;48.266;14.188;2024-03-17T09:42:31;6.60;;;3.22;;
68475;SDS011;55464;48.266;14.188;2024-03-17T09:44:57;4.95;;;3.20;;
68475;SDS011;55464;48.266;14.188;2024-03-17T09:47:23;3.95;;;2.97;;
68475;SDS011;55464;48.266;14.188;2024-03-17T09:49:51;3.47;;;2.90;;
68475;SDS011;55464;48.266;14.188;2024-03-17T09:52:21;5.40;;;3.22;;
68475;SDS011;55464;48.266;14.188;2024-03-17T09:55:08;3.47;;;3.05;;
68475;SDS011;55464;48.266;14.188;2024-03-17T09:57:35;6.68;;;3.35;;
68475;SDS011;55464;48.266;14.188;2024-03-17T10:00:09;4.10;;;3.50;;
68475;SDS011;55464;48.266;14.188;2024-03-17T10:02:45;6.00;;;3.50;;
68475;SDS011;55464;48.266;14.188;2024-03-17T10:05:18;4.90;;;3.78;;
68475;SDS011;55464;48.266;14.188;2024-03-17T10:07:49;4.47;;;3.10;;
68475;SDS011;55464;48.266;14.188;2024-03-17T10:10:15;4.05;;;3.38;;
68475;SDS011;55464;48.266;14.188;2024-03-17T10:12:49;4.73;;;3.37;;
68475;SDS011;55464;48.266;14.188;2024-03-17T10:15:16;3.50;;;3.17;;
68475;SDS011;55464;48.266;14.188;2024-03-17T10:17:43;3.58;;;2.85;;
68475;SDS011;55464;48.266;14.188;2024-03-17T10:20:12;3.65;;;2.75;;
68475;SDS011;55464;48.266;14.188;2024-03-17T10:22:51;4.60;;;3.00;;
68475;SDS011;55464;48.266;14.188;2024-03-17T10:25:26;5.45;;;3.30;;
68475;SDS011;55464;48.266;14.188;2024-03-17T10:27:53;5.53;;;3.10;;
68475;SDS011;55464;48.266;14.188;2024-03-17T10:30:19;6.75;;;3.22;;
68475;SDS011;55464;48.266;14.188;2024-03-17T10:32:48;3.70;;;3.15;;
68475;SDS011;55464;48.266;14.188;2024-03-17T10:35:51;4.55;;;3.50;;
68475;SDS011;55464;48.266;14.188;2024-03-17T10:38:09;6.22;;;3.05;;
68475;SDS011;55464;48.266;14.188;2024-03-17T10:40:37;4.93;;;3.08;;
68475;SDS011;55464;48.266;14.188;2024-03-17T10:43:04;3.00;;;2.60;;
68475;SDS011;55464;48.266;14.188;2024-03-17T10:45:30;3.35;;;3.03;;
68475;SDS011;55464;48.266;14.188;2024-03-17T10:48:07;3.40;;;2.72;;
68475;SDS011;55464;48.266;14.188;2024-03-17T10:50:36;5.72;;;3.05;;
68475;SDS011;55464;48.266;14.188;2024-03-17T10:55:45;4.20;;;3.42;;
68475;SDS011;55464;48.266;14.188;2024-03-17T11:00:49;3.47;;;2.72;;
68475;SDS011;55464;48.266;14.188;2024-03-17T11:03:15;4.82;;;3.10;;
68475;SDS011;55464;48.266;14.188;2024-03-17T11:05:43;6.55;;;3.03;;
68475;SDS011;55464;48.266;14.188;2024-03-17T11:08:14;3.55;;;2.75;;
68475;SDS011;55464;48.266;14.188;2024-03-17T11:10:48;4.88;;;2.90;;
68475;SDS011;55464;48.266;14.188;2024-03-17T11:13:25;3.28;;;2.28;;
68475;SDS011;55464;48.266;14.188;2024-03-17T11:15:55;4.32;;;2.80;;
68475;SDS011;55464;48.266;14.188;2024-03-17T11:23:56;3.42;;;2.95;;
68475;SDS011;55464;48.266;14.188;2024-03-17T11:26:41;4.18;;;3.20;;
68475;SDS011;55464;48.266;14.188;2024-03-17T11:29:23;4.20;;;2.80;;
68475;SDS011;55464;48.266;14.188;2024-03-17T11:31:52;3.55;;;2.80;;
68475;SDS011;55464;48.266;14.188;2024-03-17T11:34:30;4.88;;;2.83;;
68475;SDS011;55464;48.266;14.188;2024-03-17T11:37:00;4.78;;;2.83;;
68475;SDS011;55464;48.266;14.188;2024-03-17T11:42:14;5.43;;;2.70;;
68475;SDS011;55464;48.266;14.188;2024-03-17T11:47:35;4.43;;;2.38;;
68475;SDS011;55464;48.266;14.188;2024-03-17T11:50:02;3.60;;;2.20;;
68475;SDS011;55464;48.266;14.188;2024-03-17T11:52:29;5.15;;;2.50;;
68475;SDS011;55464;48.266;14.188;2024-03-17T11:54:55;3.35;;;2.30;;
68475;SDS011;55464;48.266;14.188;2024-03-17T11:57:22;4.28;;;2.25;;
68475;SDS011;55464;48.266;14.188;2024-03-17T11:59:49;4.22;;;2.63;;
68475;SDS011;55464;48.266;14.188;2024-03-17T12:02:22;3.10;;;2.45;;
68475;SDS011;55464;48.266;14.188;2024-03-17T12:04:53;4.82;;;2.20;;
68475;SDS011;55464;48.266;14.188;2024-03-17T12:07:22;5.20;;;2.20;;
68475;SDS011;55464;48.266;14.188;2024-03-17T12:09:48;4.30;;;2.20;;
68475;SDS011;55464;48.266;14.188;2024-03-17T12:12:19;2.72;;;2.30;;
68475;SDS011;55464;48.266;14.188;2024-03-17T12:14:45;3.63;;;2.22;;
68475;SDS011;55464;48.266;14.188;2024-03-17T12:17:13;2.05;;;1.88;;
68475;SDS011;55464;48.266;14.188;2024-03-17T12:19:40;2.92;;;2.15;;
68475;SDS011;55464;48.266;14.188;2024-03-17T12:22:09;2.35;;;1.92;;
68475;SDS011;55464;48.266;14.188;2024-03-17T12:24:41;2.90;;;1.70;;
68475;SDS011;55464;48.266;14.188;2024-03-17T12:27:09;4.53;;;2.38;;
68475;SDS011;55464;48.266;14.188;2024-03-17T12:29:42;2.83;;;1.73;;
68475;SDS011;55464;48.266;14.188;2024-03-17T12:32:18;1.48;;;1.38;;
68475;SDS011;55464;48.266;14.188;2024-03-17T12:34:46;1.75;;;1.45;;
68475;SDS011;55464;48.266;14.188;2024-03-17T12:37:17;3.33;;;1.83;;
68475;SDS011;55464;48.266;14.188;2024-03-17T12:39:44;2.60;;;1.70;;
68475;SDS011;55464;48.266;14.188;2024-03-17T12:42:12;2.78;;;1.70;;
68475;SDS011;55464;48.266;14.188;2024-03-17T12:44:51;2.17;;;1.98;;
68475;SDS011;55464;48.266;14.188;2024-03-17T12:47:19;5.00;;;2.00;;
68475;SDS011;55464;48.266;14.188;2024-03-17T12:49:51;3.00;;;2.22;;
68475;SDS011;55464;48.266;14.188;2024-03-17T12:55:07;5.40;;;2.20;;
68475;SDS011;55464;48.266;14.188;2024-03-17T12:57:54;4.43;;;1.92;;
68475;SDS011;55464;48.266;14.188;2024-03-17T13:01:00;3.53;;;2.03;;
68475;SDS011;55464;48.266;14.188;2024-03-17T13:03:36;2.13;;;1.60;;
68475;SDS011;55464;48.266;14.188;2024-03-17T13:06:05;2.40;;;2.20;;
68475;SDS011;55464;48.266;14.188;2024-03-17T13:08:31;4.20;;;2.10;;
68475;SDS011;55464;48.266;14.188;2024-03-17T13:10:57;1.85;;;1.30;;
68475;SDS011;55464;48.266;14.188;2024-03-17T13:13:25;3.15;;;1.50;;
68475;SDS011;55464;48.266;14.188;2024-03-17T13:15:51;4.63;;;1.70;;
68475;SDS011;55464;48.266;14.188;2024-03-17T13:18:18;4.88;;;1.45;;
68475;SDS011;55464;48.266;14.188;2024-03-17T13:20:44;3.70;;;1.67;;
68475;SDS011;55464;48.266;14.188;2024-03-17T13:23:11;2.95;;;2.35;;
68475;SDS011;55464;48.266;14.188;2024-03-17T13:25:37;3.53;;;1.90;;
68475;SDS011;55464;48.266;14.188;2024-03-17T13:28:03;2.40;;;1.27;;
68475;SDS011;55464;48.266;14.188;2024-03-17T13:30:31;2.60;;;1.48;;
68475;SDS011;55464;48.266;14.188;2024-03-17T13:32:58;1.70;;;1.60;;
68475;SDS011;55464;48.266;14.188;2024-03-17T13:35:25;2.15;;;1.35;;
68475;SDS011;55464;48.266;14.188;2024-03-17T13:37:52;1.08;;;0.98;;
68475;SDS011;55464;48.266;14.188;2024-03-17T13:40:22;2.30;;;1.40;;
68475;SDS011;55464;48.266;14.188;2024-03-17T13:42:49;2.85;;;1.40;;
68475;SDS011;55464;48.266;14.188;2024-03-17T13:45:16;3.55;;;1.50;;
68475;SDS011;55464;48.266;14.188;2024-03-17T13:47:50;4.13;;;1.40;;
68475;SDS011;55464;48.266;14.188;2024-03-17T13:50:20;2.17;;;1.48;;
68475;SDS011;55464;48.266;14.188;2024-03-17T13:52:45;3.10;;;1.63;;
68475;SDS011;55464;48.266;14.188;2024-03-17T13:55:15;3.55;;;2.42;;
68475;SDS011;55464;48.266;14.188;2024-03-17T14:00:09;1.88;;;1.40;;
68475;SDS011;55464;48.266;14.188;2024-03-17T14:02:35;1.90;;;1.63;;
68475;SDS011;55464;48.266;14.188;2024-03-17T14:05:00;3.80;;;1.50;;
68475;SDS011;55464;48.266;14.188;2024-03-17T14:07:27;4.97;;;3.60;;
68475;SDS011;55464;48.266;14.188;2024-03-17T14:09:52;5.05;;;2.58;;
68475;SDS011;55464;48.266;14.188;2024-03-17T14:12:18;3.83;;;2.05;;
68475;SDS011;55464;48.266;14.188;2024-03-17T14:14:43;4.00;;;1.40;;
68475;SDS011;55464;48.266;14.188;2024-03-17T14:17:09;1.70;;;1.50;;
68475;SDS011;55464;48.266;14.188;2024-03-17T14:19:34;3.15;;;1.30;;
68475;SDS011;55464;48.266;14.188;2024-03-17T14:22:00;1.52;;;1.42;;
68475;SDS011;55464;48.266;14.188;2024-03-17T14:24:26;3.30;;;1.60;;
68475;SDS011;55464;48.266;14.188;2024-03-17T14:26:52;2.63;;;1.20;;
68475;SDS011;55464;48.266;14.188;2024-03-17T14:29:17;4.63;;;1.10;;
68475;SDS011;55464;48.266;14.188;2024-03-17T14:31:43;3.88;;;1.40;;
68475;SDS011;55464;48.266;14.188;2024-03-17T14:34:10;2.35;;;1.35;;
68475;SDS011;55464;48.266;14.188;2024-03-17T14:36:36;3.30;;;1.55;;
68475;SDS011;55464;48.266;14.188;2024-03-17T14:39:02;2.78;;;1.63;;
68475;SDS011;55464;48.266;14.188;2024-03-17T14:41:28;3.13;;;1.30;;
68475;SDS011;55464;48.266;14.188;2024-03-17T14:43:55;4.45;;;1.63;;
68475;SDS011;55464;48.266;14.188;2024-03-17T14:46:21;2.78;;;1.17;;
68475;SDS011;55464;48.266;14.188;2024-03-17T14:48:46;1.92;;;1.13;;
68475;SDS011;55464;48.266;14.188;2024-03-17T14:51:12;1.92;;;1.10;;
68475;SDS011;55464;48.266;14.188;2024-03-17T14:53:38;2.08;;;1.15;;
68475;SDS011;55464;48.266;14.188;2024-03-17T14:56:12;2.92;;;1.92;;
68475;SDS011;55464;48.266;14.188;2024-03-17T14:58:39;1.67;;;1.10;;
68475;SDS011;55464;48.266;14.188;2024-03-17T15:01:05;3.45;;;1.40;;
68475;SDS011;55464;48.266;14.188;2024-03-17T15:03:30;2.42;;;1.00;;
68475;SDS011;55464;48.266;14.188;2024-03-17T15:05:55;2.30;;;1.20;;